createdAt,value
2018-01-06T00:00:28.593Z,83.09
2018-01-06T00:02:56.173Z,82.94
2018-01-06T00:05:23.812Z,82.96
2018-01-06T00:07:51.403Z,83.20
2018-01-06T00:10:19.036Z,83.39
2018-01-06T00:12:46.677Z,83.49
2018-01-06T00:15:14.256Z,83.33
2018-01-06T00:17:42.189Z,83.83
2018-01-06T00:20:09.803Z,83.90
2018-01-06T00:22:37.724Z,83.75
2018-01-06T00:25:05.385Z,83.60
2018-01-06T00:27:33.258Z,83.47
2018-01-06T00:30:01.940Z,83.37
2018-01-06T00:32:29.544Z,83.79
2018-01-06T00:34:57.119Z,84.13
2018-01-06T00:37:25.034Z,84.34
2018-01-06T00:39:53.003Z,84.57
2018-01-06T00:42:20.578Z,84.93
2018-01-06T00:44:48.176Z,84.97
2018-01-06T00:47:15.790Z,85.04
2018-01-06T00:49:43.417Z,85.27
2018-01-06T00:52:11.019Z,85.36
2018-01-06T00:54:38.602Z,85.07
2018-01-06T00:57:06.221Z,85.59
2018-01-06T00:59:33.824Z,85.46
2018-01-06T01:02:01.455Z,85.81
2018-01-06T01:04:30.233Z,86.07
2018-01-06T01:06:57.837Z,86.10
2018-01-06T01:09:25.496Z,85.78
2018-01-06T01:11:53.071Z,85.76
2018-01-06T01:14:20.718Z,85.75
2018-01-06T01:16:48.293Z,85.82
2018-01-06T01:19:15.871Z,85.54
2018-01-06T01:21:43.497Z,85.50
2018-01-06T01:24:11.100Z,85.36
2018-01-06T01:26:38.779Z,85.30
2018-01-06T01:29:06.685Z,85.29
2018-01-06T01:31:34.307Z,85.21
2018-01-06T01:34:01.919Z,85.32
2018-01-06T01:36:29.499Z,85.29
2018-01-06T01:38:57.141Z,85.39
2018-01-06T01:41:24.737Z,85.39
2018-01-06T01:43:52.329Z,85.45
2018-01-06T01:46:20.626Z,85.44
2018-01-06T01:48:48.288Z,85.25
2018-01-06T01:51:15.927Z,85.24
2018-01-06T01:53:43.503Z,84.95
2018-01-06T01:56:11.115Z,84.96
2018-01-06T01:58:38.733Z,84.99
2018-01-06T02:01:06.312Z,84.78
2018-01-06T02:03:33.955Z,85.00
2018-01-06T02:06:01.607Z,84.89
2018-01-06T02:08:29.194Z,85.07
2018-01-06T02:10:56.807Z,84.95
2018-01-06T02:13:24.392Z,84.99
2018-01-06T02:15:52.277Z,85.10
2018-01-06T02:18:20.918Z,85.53
2018-01-06T02:20:48.509Z,85.35
2018-01-06T02:23:16.141Z,85.29
2018-01-06T02:25:43.760Z,85.38
2018-01-06T02:28:11.392Z,85.37
2018-01-06T02:30:38.972Z,85.30
2018-01-06T02:33:06.583Z,85.46
2018-01-06T02:35:34.193Z,85.20
2018-01-06T02:38:01.824Z,85.36
2018-01-06T02:40:29.494Z,85.10
2018-01-06T02:42:57.080Z,85.38
2018-01-06T02:45:24.926Z,85.25
2018-01-06T02:47:52.548Z,85.34
2018-01-06T02:50:20.139Z,85.31
2018-01-06T02:52:47.767Z,85.70
2018-01-06T02:55:15.355Z,85.58
2018-01-06T02:57:43.255Z,85.41
2018-01-06T03:00:10.888Z,85.45
2018-01-06T03:02:38.484Z,85.58
2018-01-06T03:05:06.107Z,85.58
2018-01-06T03:07:33.679Z,85.39
2018-01-06T03:10:01.573Z,85.32
2018-01-06T03:12:29.190Z,85.58
2018-01-06T03:14:57.110Z,85.46
2018-01-06T03:17:24.722Z,85.77
2018-01-06T03:19:52.640Z,85.98
2018-01-06T03:22:20.503Z,86.03
2018-01-06T03:24:48.117Z,86.32
2018-01-06T03:27:15.695Z,86.32
2018-01-06T03:29:43.324Z,86.32
2018-01-06T03:32:11.156Z,85.90
2018-01-06T03:34:39.025Z,86.07
2018-01-06T03:37:06.903Z,86.34
2018-01-06T03:39:34.504Z,86.26
2018-01-06T03:42:02.128Z,86.34
2018-01-06T03:44:29.704Z,86.02
2018-01-06T03:46:57.301Z,85.88
2018-01-06T03:49:25.745Z,85.88
2018-01-06T03:51:53.317Z,85.81
2018-01-06T03:54:20.949Z,85.61
2018-01-06T03:56:48.524Z,85.58
2018-01-06T03:59:16.098Z,85.57
2018-01-06T04:01:43.704Z,85.39
2018-01-06T04:04:11.289Z,85.49
2018-01-06T04:06:39.167Z,85.25
2018-01-06T04:09:06.842Z,85.36
2018-01-06T04:11:34.424Z,85.26
2018-01-06T04:14:02.054Z,85.27
2018-01-06T04:16:29.916Z,85.16
2018-01-06T04:18:57.547Z,85.31
2018-01-06T04:21:25.124Z,85.39
2018-01-06T04:23:52.734Z,85.21
2018-01-06T04:26:20.356Z,85.23
2018-01-06T04:28:48.228Z,85.17
2018-01-06T04:31:16.097Z,85.08
2018-01-06T04:33:43.672Z,85.16
2018-01-06T04:36:11.538Z,85.48
2018-01-06T04:38:39.151Z,86.37
2018-01-06T04:41:06.740Z,86.52
2018-01-06T04:43:34.346Z,86.83
2018-01-06T04:46:01.940Z,86.96
2018-01-06T04:48:29.553Z,87.12
2018-01-06T04:50:57.181Z,86.89
2018-01-06T04:53:24.761Z,86.78
2018-01-06T04:55:52.385Z,86.57
2018-01-06T04:58:20.050Z,86.51
2018-01-06T05:00:47.621Z,86.42
2018-01-06T05:03:15.255Z,86.99
2018-01-06T05:05:42.850Z,86.78
2018-01-06T05:08:10.470Z,87.02
2018-01-06T05:10:38.096Z,87.42
2018-01-06T05:13:05.677Z,87.29
2018-01-06T05:15:33.620Z,87.05
2018-01-06T05:18:01.217Z,87.52
2018-01-06T05:20:29.628Z,87.66
2018-01-06T05:22:57.211Z,87.55
2018-01-06T05:25:24.792Z,87.64
2018-01-06T05:27:52.406Z,87.72
2018-01-06T05:30:20.152Z,87.49
2018-01-06T05:32:47.832Z,87.46
2018-01-06T05:35:15.421Z,87.29
2018-01-06T05:37:43.001Z,87.40
2018-01-06T05:40:10.616Z,87.67
2018-01-06T05:42:38.209Z,87.88
2018-01-06T05:45:05.838Z,88.26
2018-01-06T05:47:33.416Z,88.35
2018-01-06T05:50:01.009Z,88.45
2018-01-06T05:52:28.640Z,88.40
2018-01-06T05:54:56.221Z,88.46
2018-01-06T05:57:24.103Z,88.16
2018-01-06T05:59:51.687Z,88.12
2018-01-06T06:02:19.263Z,88.33
2018-01-06T06:04:46.868Z,88.44
2018-01-06T06:07:14.776Z,88.07
2018-01-06T06:09:42.725Z,88.07
2018-01-06T06:12:10.314Z,88.22
2018-01-06T06:14:37.896Z,88.20
2018-01-06T06:17:05.526Z,88.19
2018-01-06T06:19:33.108Z,88.42
2018-01-06T06:22:00.736Z,88.49
2018-01-06T06:24:28.359Z,88.80
2018-01-06T06:26:56.008Z,88.89
2018-01-06T06:29:23.945Z,88.69
2018-01-06T06:31:51.808Z,88.39
2018-01-06T06:34:19.475Z,88.28
2018-01-06T06:36:47.113Z,88.09
2018-01-06T06:39:14.689Z,88.12
2018-01-06T06:41:42.294Z,88.66
2018-01-06T06:44:09.870Z,88.37
2018-01-06T06:46:37.456Z,88.42
2018-01-06T06:49:05.076Z,88.39
2018-01-06T06:51:32.670Z,88.24
2018-01-06T06:54:00.648Z,88.13
2018-01-06T06:56:28.308Z,87.92
2018-01-06T06:58:55.908Z,87.72
2018-01-06T07:01:23.560Z,87.53
2018-01-06T07:03:51.424Z,87.48
2018-01-06T07:06:19.008Z,87.49
2018-01-06T07:08:46.642Z,87.36
2018-01-06T07:11:14.256Z,87.42
2018-01-06T07:13:41.907Z,87.17
2018-01-06T07:16:09.839Z,86.78
2018-01-06T07:18:37.436Z,86.85
2018-01-06T07:21:05.054Z,86.79
2018-01-06T07:23:32.649Z,86.67
2018-01-06T07:26:00.279Z,86.32
2018-01-06T07:28:27.950Z,86.29
2018-01-06T07:30:55.532Z,86.21
2018-01-06T07:33:23.148Z,86.24
2018-01-06T07:35:50.736Z,86.31
2018-01-06T07:38:18.397Z,86.08
2018-01-06T07:40:45.979Z,85.86
2018-01-06T07:43:13.560Z,85.76
2018-01-06T07:45:41.180Z,85.82
2018-01-06T07:48:08.843Z,85.89
2018-01-06T07:50:36.480Z,85.58
2018-01-06T07:53:04.065Z,85.46
2018-01-06T07:55:31.928Z,85.42
2018-01-06T07:58:01.433Z,85.61
2018-01-06T08:00:29.075Z,85.34
2018-01-06T08:02:56.709Z,85.28
2018-01-06T08:05:24.304Z,85.44
2018-01-06T08:07:51.911Z,85.16
2018-01-06T08:10:19.515Z,84.95
2018-01-06T08:12:47.411Z,84.77
2018-01-06T08:15:15.047Z,84.52
2018-01-06T08:17:42.678Z,84.42
2018-01-06T08:20:10.286Z,84.30
2018-01-06T08:22:37.931Z,84.15
2018-01-06T08:25:05.835Z,83.88
2018-01-06T08:27:33.475Z,83.85
2018-01-06T08:30:01.092Z,83.86
2018-01-06T08:32:28.694Z,83.54
2018-01-06T08:34:56.309Z,83.45
2018-01-06T08:37:23.888Z,83.31
2018-01-06T08:39:51.547Z,83.22
2018-01-06T08:42:19.123Z,82.83
2018-01-06T08:44:46.697Z,82.71
2018-01-06T08:47:14.582Z,82.40
2018-01-06T08:49:42.176Z,82.07
2018-01-06T08:52:09.837Z,81.30
2018-01-06T08:54:37.452Z,81.34
2018-01-06T08:57:05.096Z,81.19
2018-01-06T08:59:32.703Z,80.86
2018-01-06T09:02:00.280Z,80.49
2018-01-06T09:04:27.934Z,80.52
2018-01-06T09:06:55.807Z,80.43
2018-01-06T09:09:23.467Z,80.07
2018-01-06T09:11:51.435Z,80.04
2018-01-06T09:14:19.017Z,80.02
2018-01-06T09:16:46.639Z,79.96
2018-01-06T09:19:14.546Z,79.87
2018-01-06T09:21:42.493Z,79.70
2018-01-06T09:24:10.227Z,79.64
2018-01-06T09:26:37.800Z,79.63
2018-01-06T09:29:05.789Z,79.37
2018-01-06T09:31:33.375Z,79.21
2018-01-06T09:34:01.227Z,78.93
2018-01-06T09:36:29.207Z,78.71
2018-01-06T09:38:56.777Z,78.04
2018-01-06T09:41:24.416Z,78.21
2018-01-06T09:43:52.289Z,78.02
2018-01-06T09:46:19.885Z,78.36
2018-01-06T09:48:47.814Z,78.42
2018-01-06T09:51:15.387Z,78.62
2018-01-06T09:53:43.021Z,78.97
2018-01-06T09:56:10.635Z,78.81
2018-01-06T09:58:38.270Z,78.48
2018-01-06T10:01:05.904Z,78.61
2018-01-06T10:03:33.521Z,78.70
2018-01-06T10:06:01.159Z,78.38
2018-01-06T10:08:28.758Z,77.96
2018-01-06T10:10:56.468Z,77.82
2018-01-06T10:13:24.123Z,77.88
2018-01-06T10:15:52.412Z,77.40
2018-01-06T10:18:20.046Z,77.28
2018-01-06T10:20:47.953Z,77.74
2018-01-06T10:23:15.813Z,77.59
2018-01-06T10:25:43.687Z,77.41
2018-01-06T10:28:11.276Z,78.38
2018-01-06T10:30:38.916Z,78.45
2018-01-06T10:33:06.508Z,78.25
2018-01-06T10:35:34.112Z,78.08
2018-01-06T10:38:01.740Z,78.28
2018-01-06T10:40:29.326Z,77.74
2018-01-06T10:42:57.316Z,77.69
2018-01-06T10:45:25.201Z,77.18
2018-01-06T10:47:52.784Z,76.56
2018-01-06T10:50:20.396Z,76.03
2018-01-06T10:52:48.000Z,75.53
2018-01-06T10:55:15.642Z,75.69
2018-01-06T10:57:43.613Z,76.10
2018-01-06T11:00:11.478Z,75.25
2018-01-06T11:02:39.098Z,75.56
2018-01-06T11:05:06.696Z,76.02
2018-01-06T11:07:34.315Z,75.25
2018-01-06T11:10:01.897Z,75.49
2018-01-06T11:12:29.497Z,75.65
2018-01-06T11:14:57.452Z,75.67
2018-01-06T11:17:25.063Z,75.23
2018-01-06T11:19:52.711Z,74.72
2018-01-06T11:22:20.308Z,75.28
2018-01-06T11:24:48.231Z,75.43
2018-01-06T11:27:15.901Z,75.75
2018-01-06T11:29:43.840Z,76.04
2018-01-06T11:32:11.464Z,75.17
2018-01-06T11:34:39.086Z,74.29
2018-01-06T11:37:06.683Z,74.83
2018-01-06T11:39:34.453Z,74.98
2018-01-06T11:42:02.073Z,74.96
2018-01-06T11:44:29.715Z,75.02
2018-01-06T11:46:57.863Z,74.81
2018-01-06T11:49:25.507Z,74.89
2018-01-06T11:51:53.233Z,74.38
2018-01-06T11:54:21.191Z,73.63
2018-01-06T11:56:48.827Z,73.04
2018-01-06T11:59:16.420Z,73.07
2018-01-06T12:01:44.448Z,73.29
2018-01-06T12:04:12.326Z,73.54
2018-01-06T12:06:39.989Z,73.92
2018-01-06T12:09:07.621Z,74.82
2018-01-06T12:11:35.241Z,75.05
2018-01-06T12:14:02.881Z,76.05
2018-01-06T12:16:30.527Z,76.50
2018-01-06T12:18:58.154Z,76.78
2018-01-06T12:21:34.134Z,76.94
2018-01-06T12:24:09.435Z,76.32
2018-01-06T12:26:37.717Z,75.95
2018-01-06T12:29:05.442Z,75.62
2018-01-06T12:31:33.046Z,75.54
2018-01-06T12:34:00.668Z,75.46
2018-01-06T12:36:28.261Z,75.09
2018-01-06T12:38:55.922Z,75.25
2018-01-06T12:41:23.521Z,75.00
2018-01-06T12:43:51.153Z,74.45
2018-01-06T12:46:18.810Z,73.89
2018-01-06T12:48:46.414Z,73.04
2018-01-06T12:51:14.048Z,73.24
2018-01-06T12:53:41.690Z,73.33
2018-01-06T12:56:09.575Z,72.83
2018-01-06T12:58:37.284Z,72.59
2018-01-06T13:01:04.887Z,72.43
2018-01-06T13:03:32.557Z,72.07
2018-01-06T13:06:00.160Z,71.88
2018-01-06T13:08:27.766Z,71.74
2018-01-06T13:10:55.400Z,71.46
2018-01-06T13:13:23.042Z,71.34
2018-01-06T13:15:50.784Z,71.64
2018-01-06T13:18:18.406Z,71.58
2018-01-06T13:20:46.307Z,71.26
2018-01-06T13:23:14.261Z,72.02
2018-01-06T13:25:41.921Z,71.87
2018-01-06T13:28:09.605Z,71.80
2018-01-06T13:30:37.235Z,71.74
2018-01-06T13:33:04.813Z,71.78
2018-01-06T13:35:32.482Z,71.95
2018-01-06T13:38:00.113Z,72.18
2018-01-06T13:40:27.867Z,72.53
2018-01-06T13:42:55.457Z,72.79
2018-01-06T13:45:23.257Z,72.64
2018-01-06T13:47:50.869Z,72.94
2018-01-06T13:50:18.514Z,73.14
2018-01-06T13:52:46.128Z,73.46
2018-01-06T13:55:13.769Z,73.60
2018-01-06T13:57:41.649Z,73.30
2018-01-06T14:00:09.313Z,73.42
2018-01-06T14:02:36.952Z,73.62
2018-01-06T14:05:04.841Z,73.57
2018-01-06T14:07:32.581Z,73.42
2018-01-06T14:10:00.676Z,73.63
2018-01-06T14:12:28.301Z,73.91
2018-01-06T14:14:55.907Z,74.24
2018-01-06T14:17:23.533Z,74.27
2018-01-06T14:19:51.152Z,74.35
2018-01-06T14:22:18.792Z,74.66
2018-01-06T14:24:47.214Z,74.61
2018-01-06T14:27:14.816Z,74.59
2018-01-06T14:29:42.562Z,74.94
2018-01-06T14:32:10.270Z,75.15
2018-01-06T14:34:37.888Z,75.23
2018-01-06T14:37:05.499Z,75.51
2018-01-06T14:39:33.108Z,75.40
2018-01-06T14:42:01.252Z,75.48
2018-01-06T14:44:29.016Z,75.66
2018-01-06T14:46:56.788Z,75.78
2018-01-06T14:49:24.720Z,75.73
2018-01-06T14:51:54.295Z,75.50
2018-01-06T14:54:21.969Z,75.68
2018-01-06T14:56:49.582Z,75.64
2018-01-06T14:59:17.236Z,75.55
2018-01-06T15:01:45.083Z,75.77
2018-01-06T15:04:12.671Z,75.85
2018-01-06T15:06:40.332Z,75.78
2018-01-06T15:09:07.927Z,76.00
2018-01-06T15:11:35.595Z,75.97
2018-01-06T15:14:03.208Z,76.11
2018-01-06T15:16:31.169Z,75.73
2018-01-06T15:18:58.783Z,75.64
2018-01-06T15:21:26.411Z,76.08
2018-01-06T15:23:54.060Z,76.09
2018-01-06T15:26:21.669Z,76.09
2018-01-06T15:28:49.385Z,76.12
2018-01-06T15:31:17.243Z,76.07
2018-01-06T15:33:44.936Z,76.03
2018-01-06T15:36:12.820Z,76.03
2018-01-06T15:38:40.477Z,75.96
2018-01-06T15:41:08.108Z,75.97
2018-01-06T15:43:35.732Z,75.75
2018-01-06T15:46:03.638Z,76.05
2018-01-06T15:48:31.271Z,76.11
2018-01-06T15:50:58.880Z,76.26
2018-01-06T15:53:26.480Z,75.99
2018-01-06T15:55:54.390Z,75.93
2018-01-06T15:58:21.996Z,76.06
2018-01-06T16:00:49.664Z,75.97
2018-01-06T16:03:17.992Z,75.94
2018-01-06T16:05:45.631Z,76.10
2018-01-06T16:08:13.249Z,76.24
2018-01-06T16:10:40.872Z,76.27
2018-01-06T16:13:08.492Z,76.32
2018-01-06T16:15:36.087Z,76.50
2018-01-06T16:18:03.980Z,76.18
2018-01-06T16:20:31.597Z,75.82
2018-01-06T16:22:59.187Z,75.83
2018-01-06T16:25:26.873Z,75.58
2018-01-06T16:27:54.475Z,75.80
2018-01-06T16:30:22.087Z,76.01
2018-01-06T16:32:49.704Z,76.00
2018-01-06T16:35:17.339Z,75.93
2018-01-06T16:37:44.983Z,76.00
2018-01-06T16:40:12.567Z,76.12
2018-01-06T16:42:40.159Z,76.23
2018-01-06T16:45:07.803Z,76.31
2018-01-06T16:47:35.387Z,76.38
2018-01-06T16:50:03.051Z,76.56
2018-01-06T16:52:30.674Z,76.65
2018-01-06T16:54:58.480Z,76.77
2018-01-06T16:57:26.126Z,76.69
2018-01-06T16:59:53.718Z,76.66
2018-01-06T17:02:21.359Z,76.78
2018-01-06T17:04:49.035Z,76.69
2018-01-06T17:07:16.632Z,76.74
2018-01-06T17:09:44.276Z,76.83
2018-01-06T17:12:11.876Z,76.77
2018-01-06T17:14:39.537Z,76.89
2018-01-06T17:17:07.121Z,76.96
2018-01-06T17:19:34.700Z,77.16
2018-01-06T17:22:02.361Z,77.18
2018-01-06T17:24:30.206Z,77.13
2018-01-06T17:26:57.854Z,77.23
2018-01-06T17:29:25.441Z,77.29
2018-01-06T17:31:53.040Z,77.26
2018-01-06T17:34:20.916Z,77.24
2018-01-06T17:36:48.578Z,77.46
2018-01-06T17:39:16.207Z,77.41
2018-01-06T17:41:43.805Z,77.53
2018-01-06T17:44:11.669Z,77.81
2018-01-06T17:46:39.288Z,77.64
2018-01-06T17:49:06.887Z,77.53
2018-01-06T17:51:34.525Z,77.55
2018-01-06T17:54:02.121Z,77.53
2018-01-06T17:56:29.979Z,77.54
2018-01-06T17:58:57.859Z,77.61
2018-01-06T18:01:25.725Z,77.75
2018-01-06T18:03:53.410Z,77.65
2018-01-06T18:06:21.022Z,77.60
2018-01-06T18:08:48.656Z,77.32
2018-01-06T18:11:16.271Z,77.49
2018-01-06T18:13:44.238Z,77.60
2018-01-06T18:16:12.237Z,77.37
2018-01-06T18:18:39.832Z,77.36
2018-01-06T18:21:07.741Z,77.37
2018-01-06T18:23:35.718Z,77.54
2018-01-06T18:26:03.329Z,77.52
2018-01-06T18:28:30.968Z,77.40
2018-01-06T18:30:58.621Z,77.44
2018-01-06T18:33:26.211Z,77.69
2018-01-06T18:35:53.840Z,77.68
2018-01-06T18:38:21.459Z,77.98
2018-01-06T18:40:49.149Z,77.98
2018-01-06T18:43:16.768Z,77.94
2018-01-06T18:45:44.368Z,77.96
2018-01-06T18:48:11.981Z,77.84
2018-01-06T18:50:39.588Z,77.87
2018-01-06T18:53:07.224Z,78.00
2018-01-06T18:55:34.909Z,78.30
2018-01-06T18:58:02.505Z,78.07
2018-01-06T19:00:30.450Z,78.11
2018-01-06T19:02:58.054Z,78.00
2018-01-06T19:05:25.747Z,78.12
2018-01-06T19:07:53.372Z,78.07
2018-01-06T19:10:20.953Z,78.11
2018-01-06T19:12:48.576Z,78.29
2018-01-06T19:15:16.207Z,78.24
2018-01-06T19:17:43.825Z,78.38
2018-01-06T19:20:11.425Z,78.25
2018-01-06T19:22:39.001Z,78.40
2018-01-06T19:25:06.628Z,78.36
2018-01-06T19:27:34.225Z,78.82
2018-01-06T19:30:02.103Z,78.78
2018-01-06T19:32:29.982Z,78.99
2018-01-06T19:34:57.609Z,78.90
2018-01-06T19:37:25.228Z,78.74
2018-01-06T19:39:52.838Z,78.80
2018-01-06T19:42:20.492Z,78.88
2018-01-06T19:44:48.091Z,79.17
2018-01-06T19:47:16.171Z,79.07
2018-01-06T19:49:43.772Z,78.99
2018-01-06T19:52:11.362Z,78.99
2018-01-06T19:54:38.983Z,79.07
2018-01-06T19:57:06.679Z,79.09
2018-01-06T19:59:34.278Z,79.14
2018-01-06T20:02:02.143Z,79.28
2018-01-06T20:04:30.242Z,79.37
2018-01-06T20:06:57.930Z,79.28
2018-01-06T20:09:25.532Z,79.10
2018-01-06T20:11:53.142Z,79.15
2018-01-06T20:14:20.813Z,79.09
2018-01-06T20:16:48.433Z,79.12
2018-01-06T20:19:16.073Z,79.23
2018-01-06T20:21:44.078Z,79.27
2018-01-06T20:24:11.701Z,79.46
2018-01-06T20:26:39.341Z,79.41
2018-01-06T20:29:07.022Z,79.47
2018-01-06T20:31:34.710Z,79.57
2018-01-06T20:34:02.309Z,79.70
2018-01-06T20:36:29.921Z,79.59
2018-01-06T20:38:57.553Z,79.59
2018-01-06T20:41:25.163Z,79.72
2018-01-06T20:43:52.792Z,79.80
2018-01-06T20:46:20.400Z,79.53
2018-01-06T20:48:48.068Z,79.61
2018-01-06T20:51:15.718Z,79.78
2018-01-06T20:53:43.445Z,79.64
2018-01-06T20:56:11.510Z,79.59
2018-01-06T20:58:39.125Z,79.75
2018-01-06T21:01:06.713Z,79.45
2018-01-06T21:03:34.368Z,79.29
2018-01-06T21:06:01.981Z,79.00
2018-01-06T21:08:29.880Z,79.06
2018-01-06T21:10:58.884Z,79.46
2018-01-06T21:13:27.076Z,79.57
2018-01-06T21:15:54.672Z,79.90
2018-01-06T21:18:22.392Z,79.57
2018-01-06T21:20:50.169Z,79.06
2018-01-06T21:23:17.945Z,78.89
2018-01-06T21:25:45.712Z,79.35
2018-01-06T21:28:13.290Z,79.52
2018-01-06T21:30:40.889Z,79.75
2018-01-06T21:33:08.525Z,79.44
2018-01-06T21:35:36.130Z,79.50
2018-01-06T21:38:03.766Z,78.92
2018-01-06T21:40:31.368Z,78.99
2018-01-06T21:42:59.060Z,79.30
2018-01-06T21:45:26.705Z,79.37
2018-01-06T21:47:54.411Z,78.99
2018-01-06T21:50:22.066Z,79.06
2018-01-06T21:52:49.661Z,79.00
2018-01-06T21:55:17.264Z,79.14
2018-01-06T21:57:44.977Z,79.50
2018-01-06T22:00:12.902Z,79.58
2018-01-06T22:02:40.542Z,79.54
2018-01-06T22:05:08.204Z,79.72
2018-01-06T22:07:35.825Z,79.66
2018-01-06T22:10:04.187Z,79.87
2018-01-06T22:12:31.780Z,80.08
2018-01-06T22:14:59.836Z,80.08
2018-01-06T22:17:27.416Z,80.30
2018-01-06T22:19:55.011Z,80.33
2018-01-06T22:22:22.641Z,80.52
2018-01-06T22:24:50.225Z,79.39
2018-01-06T22:27:17.840Z,79.16
2018-01-06T22:29:45.488Z,79.18
2018-01-06T22:32:13.101Z,79.31
2018-01-06T22:34:40.721Z,78.94
2018-01-06T22:37:09.512Z,79.26
2018-01-06T22:39:37.198Z,80.05
2018-01-06T22:42:04.850Z,79.72
2018-01-06T22:44:32.428Z,79.76
2018-01-06T22:47:00.033Z,79.58
2018-01-06T22:49:27.628Z,79.74
2018-01-06T22:51:55.245Z,79.68
2018-01-06T22:54:22.908Z,79.79
2018-01-06T22:56:50.520Z,79.14
2018-01-06T22:59:18.225Z,79.34
2018-01-06T23:01:45.808Z,79.20
2018-01-06T23:04:13.423Z,79.26
2018-01-06T23:06:41.015Z,79.44
2018-01-06T23:09:08.625Z,79.48
2018-01-06T23:11:36.253Z,79.24
2018-01-06T23:14:03.894Z,78.63
2018-01-06T23:16:31.522Z,78.28
2018-01-06T23:18:59.242Z,78.36
2018-01-06T23:21:26.837Z,77.85
2018-01-06T23:23:54.489Z,77.79
2018-01-06T23:26:22.072Z,77.88
2018-01-06T23:28:49.833Z,77.38
2018-01-06T23:31:17.472Z,76.90
2018-01-06T23:33:45.087Z,76.62
2018-01-06T23:36:12.839Z,76.54
2018-01-06T23:38:40.788Z,76.46
2018-01-06T23:41:08.861Z,75.87
2018-01-06T23:43:36.520Z,74.80
2018-01-06T23:46:04.162Z,74.78
2018-01-06T23:48:31.823Z,74.99
2018-01-06T23:50:59.405Z,75.18
2018-01-06T23:53:27.028Z,75.23
2018-01-06T23:55:54.704Z,75.16
2018-01-06T23:58:22.339Z,74.45
